sensor_id;sensor_type;location;lat;lon;timestamp;P1;durP1;ratioP1;P2;durP2;ratioP2
69087;SDS011;56190;43.562;5.036;2023-06-22T00:02:18;15.63;;;8.18;;
69087;SDS011;56190;43.562;5.036;2023-06-22T00:04:44;17.95;;;7.30;;
69087;SDS011;56190;43.562;5.036;2023-06-22T00:07:09;17.40;;;8.10;;
69087;SDS011;56190;43.562;5.036;2023-06-22T00:09:35;17.05;;;8.07;;
69087;SDS011;56190;43.562;5.036;2023-06-22T00:12:01;14.43;;;7.38;;
69087;SDS011;56190;43.562;5.036;2023-06-22T00:14:26;13.95;;;7.90;;
69087;SDS011;56190;43.562;5.036;2023-06-22T00:16:51;15.98;;;7.68;;
69087;SDS011;56190;43.562;5.036;2023-06-22T00:19:22;16.02;;;7.32;;
69087;SDS011;56190;43.562;5.036;2023-06-22T00:21:47;15.73;;;8.18;;
69087;SDS011;56190;43.562;5.036;2023-06-22T00:24:17;13.25;;;7.78;;
69087;SDS011;56190;43.562;5.036;2023-06-22T00:26:43;16.40;;;8.18;;
69087;SDS011;56190;43.562;5.036;2023-06-22T00:29:08;13.30;;;7.38;;
69087;SDS011;56190;43.562;5.036;2023-06-22T00:31:33;18.67;;;8.55;;
69087;SDS011;56190;43.562;5.036;2023-06-22T00:33:58;14.90;;;7.80;;
69087;SDS011;56190;43.562;5.036;2023-06-22T00:36:24;14.88;;;7.78;;
69087;SDS011;56190;43.562;5.036;2023-06-22T00:38:49;16.13;;;7.40;;
69087;SDS011;56190;43.562;5.036;2023-06-22T00:41:15;19.13;;;7.85;;
69087;SDS011;56190;43.562;5.036;2023-06-22T00:43:41;17.02;;;8.23;;
69087;SDS011;56190;43.562;5.036;2023-06-22T00:46:07;13.98;;;7.70;;
69087;SDS011;56190;43.562;5.036;2023-06-22T00:48:32;15.27;;;7.18;;
69087;SDS011;56190;43.562;5.036;2023-06-22T00:50:58;18.33;;;8.27;;
69087;SDS011;56190;43.562;5.036;2023-06-22T00:53:23;19.10;;;8.07;;
69087;SDS011;56190;43.562;5.036;2023-06-22T00:55:49;18.77;;;8.27;;
69087;SDS011;56190;43.562;5.036;2023-06-22T00:58:17;16.05;;;7.65;;
69087;SDS011;56190;43.562;5.036;2023-06-22T01:00:46;13.82;;;7.80;;
69087;SDS011;56190;43.562;5.036;2023-06-22T01:03:11;17.45;;;8.30;;
69087;SDS011;56190;43.562;5.036;2023-06-22T01:05:37;15.73;;;9.48;;
69087;SDS011;56190;43.562;5.036;2023-06-22T01:10:48;17.25;;;8.57;;
69087;SDS011;56190;43.562;5.036;2023-06-22T01:19:00;17.98;;;8.27;;
69087;SDS011;56190;43.562;5.036;2023-06-22T01:21:28;13.18;;;8.35;;
69087;SDS011;56190;43.562;5.036;2023-06-22T01:28:55;16.58;;;8.38;;
69087;SDS011;56190;43.562;5.036;2023-06-22T01:31:24;16.15;;;8.13;;
69087;SDS011;56190;43.562;5.036;2023-06-22T01:33:50;24.52;;;8.93;;
69087;SDS011;56190;43.562;5.036;2023-06-22T01:36:16;18.92;;;8.57;;
69087;SDS011;56190;43.562;5.036;2023-06-22T01:38:42;16.60;;;8.70;;
69087;SDS011;56190;43.562;5.036;2023-06-22T01:41:08;16.77;;;8.80;;
69087;SDS011;56190;43.562;5.036;2023-06-22T01:43:33;23.50;;;8.93;;
69087;SDS011;56190;43.562;5.036;2023-06-22T01:46:00;20.10;;;7.95;;
69087;SDS011;56190;43.562;5.036;2023-06-22T01:48:26;16.33;;;8.32;;
69087;SDS011;56190;43.562;5.036;2023-06-22T01:50:52;16.05;;;8.05;;
69087;SDS011;56190;43.562;5.036;2023-06-22T01:53:19;14.77;;;8.85;;
69087;SDS011;56190;43.562;5.036;2023-06-22T01:55:45;14.52;;;8.68;;
69087;SDS011;56190;43.562;5.036;2023-06-22T01:58:10;17.42;;;9.07;;
69087;SDS011;56190;43.562;5.036;2023-06-22T02:00:38;17.65;;;8.77;;
69087;SDS011;56190;43.562;5.036;2023-06-22T02:03:08;16.73;;;8.60;;
69087;SDS011;56190;43.562;5.036;2023-06-22T02:05:36;17.20;;;8.70;;
69087;SDS011;56190;43.562;5.036;2023-06-22T02:10:28;18.98;;;9.23;;
69087;SDS011;56190;43.562;5.036;2023-06-22T02:12:54;17.27;;;8.60;;
69087;SDS011;56190;43.562;5.036;2023-06-22T02:15:21;13.88;;;7.97;;
69087;SDS011;56190;43.562;5.036;2023-06-22T02:17:47;19.48;;;9.23;;
69087;SDS011;56190;43.562;5.036;2023-06-22T02:20:13;17.08;;;8.70;;
69087;SDS011;56190;43.562;5.036;2023-06-22T02:22:38;14.65;;;8.18;;
69087;SDS011;56190;43.562;5.036;2023-06-22T02:25:03;14.88;;;8.15;;
69087;SDS011;56190;43.562;5.036;2023-06-22T02:27:29;18.00;;;9.02;;
69087;SDS011;56190;43.562;5.036;2023-06-22T02:29:54;15.05;;;8.13;;
69087;SDS011;56190;43.562;5.036;2023-06-22T02:32:19;14.55;;;8.60;;
69087;SDS011;56190;43.562;5.036;2023-06-22T02:34:44;13.88;;;8.38;;
69087;SDS011;56190;43.562;5.036;2023-06-22T02:37:12;15.95;;;9.00;;
69087;SDS011;56190;43.562;5.036;2023-06-22T02:39:39;16.30;;;7.97;;
69087;SDS011;56190;43.562;5.036;2023-06-22T02:42:05;17.35;;;8.50;;
69087;SDS011;56190;43.562;5.036;2023-06-22T02:44:30;14.10;;;8.02;;
69087;SDS011;56190;43.562;5.036;2023-06-22T02:46:55;21.60;;;8.70;;
69087;SDS011;56190;43.562;5.036;2023-06-22T02:49:21;13.43;;;7.35;;
69087;SDS011;56190;43.562;5.036;2023-06-22T02:51:46;14.55;;;8.07;;
69087;SDS011;56190;43.562;5.036;2023-06-22T02:54:12;22.85;;;9.23;;
69087;SDS011;56190;43.562;5.036;2023-06-22T02:56:37;16.05;;;8.57;;
69087;SDS011;56190;43.562;5.036;2023-06-22T02:59:02;17.13;;;8.27;;
69087;SDS011;56190;43.562;5.036;2023-06-22T03:01:28;18.40;;;9.63;;
69087;SDS011;56190;43.562;5.036;2023-06-22T03:03:55;19.08;;;9.00;;
69087;SDS011;56190;43.562;5.036;2023-06-22T03:06:20;15.48;;;8.43;;
69087;SDS011;56190;43.562;5.036;2023-06-22T03:08:48;19.63;;;7.95;;
69087;SDS011;56190;43.562;5.036;2023-06-22T03:11:14;20.45;;;9.25;;
69087;SDS011;56190;43.562;5.036;2023-06-22T03:13:39;20.05;;;8.60;;
69087;SDS011;56190;43.562;5.036;2023-06-22T03:16:04;19.38;;;9.25;;
69087;SDS011;56190;43.562;5.036;2023-06-22T03:18:29;17.85;;;8.27;;
69087;SDS011;56190;43.562;5.036;2023-06-22T03:20:55;15.80;;;7.93;;
69087;SDS011;56190;43.562;5.036;2023-06-22T03:23:20;13.27;;;7.57;;
69087;SDS011;56190;43.562;5.036;2023-06-22T03:25:45;15.45;;;6.95;;
69087;SDS011;56190;43.562;5.036;2023-06-22T03:28:10;14.90;;;7.40;;
69087;SDS011;56190;43.562;5.036;2023-06-22T03:30:36;14.10;;;6.53;;
69087;SDS011;56190;43.562;5.036;2023-06-22T03:33:01;13.07;;;6.65;;
69087;SDS011;56190;43.562;5.036;2023-06-22T03:35:26;10.95;;;5.72;;
69087;SDS011;56190;43.562;5.036;2023-06-22T03:37:51;15.30;;;6.07;;
69087;SDS011;56190;43.562;5.036;2023-06-22T03:40:17;13.20;;;5.97;;
69087;SDS011;56190;43.562;5.036;2023-06-22T03:42:42;13.18;;;5.35;;
69087;SDS011;56190;43.562;5.036;2023-06-22T03:45:07;15.80;;;6.20;;
69087;SDS011;56190;43.562;5.036;2023-06-22T03:47:33;11.73;;;5.65;;
69087;SDS011;56190;43.562;5.036;2023-06-22T03:49:58;12.63;;;4.82;;
69087;SDS011;56190;43.562;5.036;2023-06-22T03:52:24;11.40;;;5.57;;
69087;SDS011;56190;43.562;5.036;2023-06-22T03:54:50;9.25;;;4.55;;
69087;SDS011;56190;43.562;5.036;2023-06-22T03:57:15;11.25;;;4.85;;
69087;SDS011;56190;43.562;5.036;2023-06-22T03:59:41;9.93;;;5.30;;
69087;SDS011;56190;43.562;5.036;2023-06-22T04:02:06;9.18;;;4.50;;
69087;SDS011;56190;43.562;5.036;2023-06-22T04:04:31;10.18;;;4.75;;
69087;SDS011;56190;43.562;5.036;2023-06-22T04:06:57;9.45;;;4.28;;
69087;SDS011;56190;43.562;5.036;2023-06-22T04:09:22;8.60;;;4.28;;
69087;SDS011;56190;43.562;5.036;2023-06-22T04:11:47;15.90;;;4.97;;
69087;SDS011;56190;43.562;5.036;2023-06-22T04:14:12;10.68;;;4.90;;
69087;SDS011;56190;43.562;5.036;2023-06-22T04:16:38;7.68;;;3.90;;
69087;SDS011;56190;43.562;5.036;2023-06-22T04:19:03;9.75;;;3.75;;
69087;SDS011;56190;43.562;5.036;2023-06-22T04:21:28;7.50;;;4.15;;
69087;SDS011;56190;43.562;5.036;2023-06-22T04:23:54;10.93;;;5.65;;
69087;SDS011;56190;43.562;5.036;2023-06-22T04:26:19;11.05;;;5.10;;
69087;SDS011;56190;43.562;5.036;2023-06-22T04:28:46;12.85;;;4.88;;
69087;SDS011;56190;43.562;5.036;2023-06-22T04:31:16;11.18;;;4.93;;
69087;SDS011;56190;43.562;5.036;2023-06-22T04:33:42;15.73;;;4.30;;
69087;SDS011;56190;43.562;5.036;2023-06-22T04:36:07;8.45;;;4.15;;
69087;SDS011;56190;43.562;5.036;2023-06-22T04:38:32;9.60;;;4.20;;
69087;SDS011;56190;43.562;5.036;2023-06-22T04:40:58;11.27;;;4.28;;
69087;SDS011;56190;43.562;5.036;2023-06-22T04:43:23;8.57;;;3.95;;
69087;SDS011;56190;43.562;5.036;2023-06-22T04:45:49;15.95;;;4.85;;
69087;SDS011;56190;43.562;5.036;2023-06-22T04:48:17;8.32;;;4.05;;
69087;SDS011;56190;43.562;5.036;2023-06-22T04:50:42;9.80;;;4.03;;
69087;SDS011;56190;43.562;5.036;2023-06-22T04:53:09;8.68;;;3.78;;
69087;SDS011;56190;43.562;5.036;2023-06-22T04:55:34;7.97;;;3.80;;
69087;SDS011;56190;43.562;5.036;2023-06-22T04:58:02;10.98;;;3.95;;
69087;SDS011;56190;43.562;5.036;2023-06-22T05:00:29;9.80;;;4.07;;
69087;SDS011;56190;43.562;5.036;2023-06-22T05:02:55;9.90;;;3.78;;
69087;SDS011;56190;43.562;5.036;2023-06-22T05:05:22;12.13;;;3.58;;
69087;SDS011;56190;43.562;5.036;2023-06-22T05:07:49;10.07;;;3.80;;
69087;SDS011;56190;43.562;5.036;2023-06-22T05:10:15;8.85;;;3.67;;
69087;SDS011;56190;43.562;5.036;2023-06-22T05:12:41;9.30;;;4.15;;
69087;SDS011;56190;43.562;5.036;2023-06-22T05:15:07;10.30;;;3.20;;
69087;SDS011;56190;43.562;5.036;2023-06-22T05:17:32;12.73;;;4.63;;
69087;SDS011;56190;43.562;5.036;2023-06-22T05:19:57;9.73;;;5.35;;
69087;SDS011;56190;43.562;5.036;2023-06-22T05:22:23;14.85;;;6.13;;
69087;SDS011;56190;43.562;5.036;2023-06-22T05:24:48;7.82;;;4.50;;
69087;SDS011;56190;43.562;5.036;2023-06-22T05:27:14;11.25;;;5.10;;
69087;SDS011;56190;43.562;5.036;2023-06-22T05:29:39;11.65;;;5.20;;
69087;SDS011;56190;43.562;5.036;2023-06-22T05:32:05;12.48;;;5.78;;
69087;SDS011;56190;43.562;5.036;2023-06-22T05:34:30;26.60;;;9.02;;
69087;SDS011;56190;43.562;5.036;2023-06-22T05:36:56;28.42;;;9.18;;
69087;SDS011;56190;43.562;5.036;2023-06-22T05:39:24;17.52;;;7.97;;
69087;SDS011;56190;43.562;5.036;2023-06-22T05:41:49;16.83;;;7.43;;
69087;SDS011;56190;43.562;5.036;2023-06-22T05:44:14;13.18;;;6.20;;
69087;SDS011;56190;43.562;5.036;2023-06-22T05:46:40;13.82;;;6.35;;
69087;SDS011;56190;43.562;5.036;2023-06-22T05:49:09;15.93;;;7.50;;
69087;SDS011;56190;43.562;5.036;2023-06-22T05:51:34;17.23;;;7.18;;
69087;SDS011;56190;43.562;5.036;2023-06-22T05:54:00;12.32;;;7.20;;
69087;SDS011;56190;43.562;5.036;2023-06-22T05:56:25;17.55;;;7.95;;
69087;SDS011;56190;43.562;5.036;2023-06-22T05:58:50;13.75;;;7.30;;
69087;SDS011;56190;43.562;5.036;2023-06-22T06:01:16;13.95;;;7.20;;
69087;SDS011;56190;43.562;5.036;2023-06-22T06:03:41;13.25;;;7.28;;
69087;SDS011;56190;43.562;5.036;2023-06-22T06:06:07;16.35;;;8.23;;
69087;SDS011;56190;43.562;5.036;2023-06-22T06:08:32;16.98;;;8.00;;
69087;SDS011;56190;43.562;5.036;2023-06-22T06:10:58;15.13;;;7.25;;
69087;SDS011;56190;43.562;5.036;2023-06-22T06:13:23;16.77;;;9.02;;
69087;SDS011;56190;43.562;5.036;2023-06-22T06:15:48;14.10;;;8.48;;
69087;SDS011;56190;43.562;5.036;2023-06-22T06:18:16;14.77;;;8.18;;
69087;SDS011;56190;43.562;5.036;2023-06-22T06:20:41;15.10;;;8.48;;
69087;SDS011;56190;43.562;5.036;2023-06-22T06:23:07;14.18;;;8.60;;
69087;SDS011;56190;43.562;5.036;2023-06-22T06:25:32;16.42;;;8.38;;
69087;SDS011;56190;43.562;5.036;2023-06-22T06:27:57;15.63;;;8.38;;
69087;SDS011;56190;43.562;5.036;2023-06-22T06:30:23;18.42;;;9.10;;
69087;SDS011;56190;43.562;5.036;2023-06-22T06:32:48;13.45;;;8.52;;
69087;SDS011;56190;43.562;5.036;2023-06-22T06:35:14;13.70;;;8.63;;
69087;SDS011;56190;43.562;5.036;2023-06-22T06:37:42;11.95;;;7.82;;
69087;SDS011;56190;43.562;5.036;2023-06-22T06:40:08;14.82;;;9.18;;
69087;SDS011;56190;43.562;5.036;2023-06-22T06:42:35;17.10;;;9.25;;
69087;SDS011;56190;43.562;5.036;2023-06-22T06:45:02;22.20;;;9.15;;
69087;SDS011;56190;43.562;5.036;2023-06-22T06:47:27;23.13;;;9.45;;
69087;SDS011;56190;43.562;5.036;2023-06-22T06:49:53;16.42;;;8.43;;
69087;SDS011;56190;43.562;5.036;2023-06-22T06:52:18;17.58;;;9.02;;
69087;SDS011;56190;43.562;5.036;2023-06-22T06:54:45;15.35;;;7.38;;
69087;SDS011;56190;43.562;5.036;2023-06-22T06:57:10;15.95;;;7.68;;
69087;SDS011;56190;43.562;5.036;2023-06-22T06:59:38;19.65;;;7.80;;
69087;SDS011;56190;43.562;5.036;2023-06-22T07:02:04;15.70;;;8.43;;
69087;SDS011;56190;43.562;5.036;2023-06-22T07:04:29;13.10;;;6.93;;
69087;SDS011;56190;43.562;5.036;2023-06-22T07:06:54;19.58;;;8.15;;
69087;SDS011;56190;43.562;5.036;2023-06-22T07:09:20;15.70;;;9.35;;
69087;SDS011;56190;43.562;5.036;2023-06-22T07:11:45;11.57;;;6.78;;
69087;SDS011;56190;43.562;5.036;2023-06-22T07:14:10;20.70;;;7.97;;
69087;SDS011;56190;43.562;5.036;2023-06-22T07:16:35;16.17;;;7.60;;
69087;SDS011;56190;43.562;5.036;2023-06-22T07:19:00;12.68;;;7.85;;
69087;SDS011;56190;43.562;5.036;2023-06-22T07:21:26;13.88;;;7.32;;
69087;SDS011;56190;43.562;5.036;2023-06-22T07:23:51;23.20;;;8.45;;
69087;SDS011;56190;43.562;5.036;2023-06-22T07:26:16;16.17;;;7.68;;
69087;SDS011;56190;43.562;5.036;2023-06-22T07:28:42;17.17;;;8.18;;
69087;SDS011;56190;43.562;5.036;2023-06-22T07:31:07;14.18;;;7.45;;
69087;SDS011;56190;43.562;5.036;2023-06-22T07:33:32;21.05;;;8.85;;
69087;SDS011;56190;43.562;5.036;2023-06-22T07:35:58;16.27;;;7.97;;
69087;SDS011;56190;43.562;5.036;2023-06-22T07:38:23;15.68;;;8.30;;
69087;SDS011;56190;43.562;5.036;2023-06-22T07:40:48;13.95;;;8.07;;
69087;SDS011;56190;43.562;5.036;2023-06-22T07:43:14;16.77;;;7.53;;
69087;SDS011;56190;43.562;5.036;2023-06-22T07:45:39;15.85;;;8.88;;
69087;SDS011;56190;43.562;5.036;2023-06-22T07:48:06;13.90;;;7.68;;
69087;SDS011;56190;43.562;5.036;2023-06-22T07:50:31;17.63;;;8.07;;
69087;SDS011;56190;43.562;5.036;2023-06-22T07:52:57;12.63;;;6.93;;
69087;SDS011;56190;43.562;5.036;2023-06-22T07:55:22;18.10;;;8.10;;
69087;SDS011;56190;43.562;5.036;2023-06-22T07:57:48;14.45;;;7.88;;
69087;SDS011;56190;43.562;5.036;2023-06-22T08:00:14;13.27;;;7.20;;
69087;SDS011;56190;43.562;5.036;2023-06-22T08:02:41;13.00;;;6.90;;
69087;SDS011;56190;43.562;5.036;2023-06-22T08:05:06;16.58;;;7.55;;
69087;SDS011;56190;43.562;5.036;2023-06-22T08:07:33;15.23;;;7.30;;
69087;SDS011;56190;43.562;5.036;2023-06-22T08:09:58;12.73;;;7.07;;
69087;SDS011;56190;43.562;5.036;2023-06-22T08:12:23;15.48;;;7.10;;
69087;SDS011;56190;43.562;5.036;2023-06-22T08:14:49;13.50;;;6.45;;
69087;SDS011;56190;43.562;5.036;2023-06-22T08:17:14;14.38;;;7.55;;
69087;SDS011;56190;43.562;5.036;2023-06-22T08:19:39;13.85;;;6.35;;
69087;SDS011;56190;43.562;5.036;2023-06-22T08:22:05;11.65;;;6.10;;
69087;SDS011;56190;43.562;5.036;2023-06-22T08:24:30;12.50;;;6.32;;
69087;SDS011;56190;43.562;5.036;2023-06-22T08:26:55;14.30;;;6.05;;
69087;SDS011;56190;43.562;5.036;2023-06-22T08:29:20;12.07;;;5.65;;
69087;SDS011;56190;43.562;5.036;2023-06-22T08:31:46;14.35;;;5.78;;
69087;SDS011;56190;43.562;5.036;2023-06-22T08:34:11;9.70;;;5.03;;
69087;SDS011;56190;43.562;5.036;2023-06-22T08:36:37;10.57;;;5.35;;
69087;SDS011;56190;43.562;5.036;2023-06-22T08:39:06;12.27;;;6.18;;
69087;SDS011;56190;43.562;5.036;2023-06-22T08:41:31;10.32;;;5.63;;
69087;SDS011;56190;43.562;5.036;2023-06-22T08:43:57;11.45;;;4.93;;
69087;SDS011;56190;43.562;5.036;2023-06-22T08:46:22;8.30;;;4.22;;
69087;SDS011;56190;43.562;5.036;2023-06-22T08:48:55;11.30;;;4.57;;
69087;SDS011;56190;43.562;5.036;2023-06-22T08:51:20;13.65;;;5.03;;
69087;SDS011;56190;43.562;5.036;2023-06-22T08:53:45;7.20;;;4.60;;
69087;SDS011;56190;43.562;5.036;2023-06-22T08:56:11;7.80;;;4.18;;
69087;SDS011;56190;43.562;5.036;2023-06-22T08:58:36;8.85;;;4.13;;
69087;SDS011;56190;43.562;5.036;2023-06-22T09:01:01;7.55;;;4.43;;
69087;SDS011;56190;43.562;5.036;2023-06-22T09:03:27;10.05;;;4.30;;
69087;SDS011;56190;43.562;5.036;2023-06-22T09:05:52;9.27;;;4.18;;
69087;SDS011;56190;43.562;5.036;2023-06-22T09:08:17;9.77;;;4.68;;
69087;SDS011;56190;43.562;5.036;2023-06-22T09:10:43;9.85;;;4.57;;
69087;SDS011;56190;43.562;5.036;2023-06-22T09:13:08;8.73;;;4.25;;
69087;SDS011;56190;43.562;5.036;2023-06-22T09:15:33;13.60;;;5.68;;
69087;SDS011;56190;43.562;5.036;2023-06-22T09:17:59;10.68;;;4.88;;
69087;SDS011;56190;43.562;5.036;2023-06-22T09:20:24;12.95;;;5.10;;
69087;SDS011;56190;43.562;5.036;2023-06-22T09:22:50;10.07;;;4.65;;
69087;SDS011;56190;43.562;5.036;2023-06-22T09:25:15;12.05;;;5.00;;
69087;SDS011;56190;43.562;5.036;2023-06-22T09:27:40;9.57;;;4.95;;
69087;SDS011;56190;43.562;5.036;2023-06-22T09:30:06;8.30;;;4.95;;
69087;SDS011;56190;43.562;5.036;2023-06-22T09:32:31;8.60;;;4.30;;
69087;SDS011;56190;43.562;5.036;2023-06-22T09:34:57;11.13;;;4.60;;
69087;SDS011;56190;43.562;5.036;2023-06-22T09:37:22;8.10;;;4.70;;
69087;SDS011;56190;43.562;5.036;2023-06-22T09:39:47;12.85;;;5.18;;
69087;SDS011;56190;43.562;5.036;2023-06-22T09:42:12;8.80;;;4.68;;
69087;SDS011;56190;43.562;5.036;2023-06-22T09:44:38;8.48;;;4.53;;
69087;SDS011;56190;43.562;5.036;2023-06-22T09:47:04;7.95;;;4.53;;
69087;SDS011;56190;43.562;5.036;2023-06-22T09:49:29;8.90;;;4.47;;
69087;SDS011;56190;43.562;5.036;2023-06-22T09:51:54;10.32;;;4.75;;
69087;SDS011;56190;43.562;5.036;2023-06-22T09:54:19;11.07;;;5.30;;
69087;SDS011;56190;43.562;5.036;2023-06-22T09:56:45;11.32;;;5.25;;
69087;SDS011;56190;43.562;5.036;2023-06-22T10:29:02;14.20;;;6.07;;
69087;SDS011;56190;43.562;5.036;2023-06-22T10:31:27;16.60;;;6.20;;
69087;SDS011;56190;43.562;5.036;2023-06-22T10:33:53;12.52;;;5.88;;
69087;SDS011;56190;43.562;5.036;2023-06-22T10:36:18;15.00;;;6.13;;
69087;SDS011;56190;43.562;5.036;2023-06-22T10:38:43;10.95;;;5.32;;
69087;SDS011;56190;43.562;5.036;2023-06-22T10:41:09;15.10;;;6.25;;
69087;SDS011;56190;43.562;5.036;2023-06-22T10:43:34;14.25;;;5.75;;
69087;SDS011;56190;43.562;5.036;2023-06-22T10:45:59;17.00;;;6.10;;
69087;SDS011;56190;43.562;5.036;2023-06-22T10:48:24;10.63;;;5.22;;
69087;SDS011;56190;43.562;5.036;2023-06-22T10:50:50;14.57;;;5.90;;
69087;SDS011;56190;43.562;5.036;2023-06-22T10:53:15;13.97;;;5.80;;
69087;SDS011;56190;43.562;5.036;2023-06-22T10:55:40;13.67;;;6.47;;
69087;SDS011;56190;43.562;5.036;2023-06-22T10:58:05;14.83;;;6.97;;
69087;SDS011;56190;43.562;5.036;2023-06-22T11:00:31;20.17;;;9.95;;
69087;SDS011;56190;43.562;5.036;2023-06-22T11:02:56;19.77;;;10.25;;
69087;SDS011;56190;43.562;5.036;2023-06-22T11:05:23;17.05;;;8.70;;
69087;SDS011;56190;43.562;5.036;2023-06-22T11:07:48;16.85;;;8.30;;
69087;SDS011;56190;43.562;5.036;2023-06-22T11:10:14;14.50;;;7.28;;
69087;SDS011;56190;43.562;5.036;2023-06-22T11:12:40;15.63;;;6.78;;
69087;SDS011;56190;43.562;5.036;2023-06-22T11:15:05;11.95;;;5.97;;
69087;SDS011;56190;43.562;5.036;2023-06-22T11:17:30;12.98;;;6.35;;
69087;SDS011;56190;43.562;5.036;2023-06-22T11:19:56;14.07;;;5.93;;
69087;SDS011;56190;43.562;5.036;2023-06-22T11:22:21;14.50;;;6.05;;
69087;SDS011;56190;43.562;5.036;2023-06-22T11:24:46;16.55;;;5.68;;
69087;SDS011;56190;43.562;5.036;2023-06-22T11:27:11;12.07;;;5.27;;
69087;SDS011;56190;43.562;5.036;2023-06-22T11:29:37;11.80;;;5.35;;
69087;SDS011;56190;43.562;5.036;2023-06-22T11:32:05;14.32;;;5.63;;
69087;SDS011;56190;43.562;5.036;2023-06-22T11:34:30;12.52;;;5.50;;
69087;SDS011;56190;43.562;5.036;2023-06-22T11:36:55;14.70;;;5.20;;
69087;SDS011;56190;43.562;5.036;2023-06-22T11:39:20;13.20;;;5.40;;
69087;SDS011;56190;43.562;5.036;2023-06-22T11:41:46;18.13;;;5.72;;
69087;SDS011;56190;43.562;5.036;2023-06-22T11:44:11;13.32;;;5.05;;
69087;SDS011;56190;43.562;5.036;2023-06-22T11:46:36;12.13;;;4.93;;
69087;SDS011;56190;43.562;5.036;2023-06-22T11:49:02;15.57;;;5.78;;
69087;SDS011;56190;43.562;5.036;2023-06-22T11:51:27;13.25;;;5.50;;
69087;SDS011;56190;43.562;5.036;2023-06-22T11:53:53;12.97;;;5.30;;
69087;SDS011;56190;43.562;5.036;2023-06-22T11:56:18;14.35;;;5.47;;
69087;SDS011;56190;43.562;5.036;2023-06-22T11:58:43;18.40;;;5.82;;
69087;SDS011;56190;43.562;5.036;2023-06-22T12:01:09;12.63;;;5.47;;
69087;SDS011;56190;43.562;5.036;2023-06-22T12:03:34;14.70;;;5.07;;
69087;SDS011;56190;43.562;5.036;2023-06-22T12:05:59;11.93;;;5.70;;
69087;SDS011;56190;43.562;5.036;2023-06-22T12:08:25;13.07;;;6.35;;
69087;SDS011;56190;43.562;5.036;2023-06-22T12:10:50;15.25;;;5.35;;
69087;SDS011;56190;43.562;5.036;2023-06-22T12:13:15;13.07;;;5.80;;
69087;SDS011;56190;43.562;5.036;2023-06-22T12:15:40;19.07;;;5.77;;
69087;SDS011;56190;43.562;5.036;2023-06-22T12:18:06;17.47;;;5.53;;
69087;SDS011;56190;43.562;5.036;2023-06-22T12:20:31;12.13;;;5.13;;
69087;SDS011;56190;43.562;5.036;2023-06-22T12:22:57;16.17;;;5.32;;
69087;SDS011;56190;43.562;5.036;2023-06-22T12:25:23;16.08;;;5.80;;
69087;SDS011;56190;43.562;5.036;2023-06-22T12:27:48;14.57;;;5.63;;
69087;SDS011;56190;43.562;5.036;2023-06-22T12:30:15;13.05;;;5.53;;
69087;SDS011;56190;43.562;5.036;2023-06-22T12:32:40;15.65;;;5.65;;
69087;SDS011;56190;43.562;5.036;2023-06-22T12:35:06;20.80;;;7.20;;
69087;SDS011;56190;43.562;5.036;2023-06-22T12:37:36;12.85;;;5.20;;
69087;SDS011;56190;43.562;5.036;2023-06-22T12:40:02;17.10;;;5.50;;
69087;SDS011;56190;43.562;5.036;2023-06-22T12:42:28;16.70;;;6.25;;
69087;SDS011;56190;43.562;5.036;2023-06-22T12:44:54;14.93;;;5.60;;
69087;SDS011;56190;43.562;5.036;2023-06-22T12:47:19;19.38;;;6.38;;
69087;SDS011;56190;43.562;5.036;2023-06-22T12:49:45;14.07;;;5.38;;
69087;SDS011;56190;43.562;5.036;2023-06-22T12:52:10;21.73;;;6.35;;
69087;SDS011;56190;43.562;5.036;2023-06-22T12:54:36;16.10;;;6.05;;
69087;SDS011;56190;43.562;5.036;2023-06-22T12:57:01;13.70;;;5.57;;
69087;SDS011;56190;43.562;5.036;2023-06-22T12:59:26;16.85;;;6.07;;
69087;SDS011;56190;43.562;5.036;2023-06-22T13:01:51;14.93;;;5.77;;
69087;SDS011;56190;43.562;5.036;2023-06-22T13:04:17;12.43;;;4.97;;
69087;SDS011;56190;43.562;5.036;2023-06-22T13:06:43;16.98;;;5.75;;
69087;SDS011;56190;43.562;5.036;2023-06-22T13:09:09;17.55;;;6.22;;
69087;SDS011;56190;43.562;5.036;2023-06-22T13:11:35;17.05;;;6.18;;
69087;SDS011;56190;43.562;5.036;2023-06-22T13:14:00;14.90;;;5.88;;
69087;SDS011;56190;43.562;5.036;2023-06-22T13:16:25;16.95;;;6.25;;
69087;SDS011;56190;43.562;5.036;2023-06-22T13:18:50;17.80;;;6.40;;
69087;SDS011;56190;43.562;5.036;2023-06-22T13:21:16;17.17;;;5.70;;
69087;SDS011;56190;43.562;5.036;2023-06-22T13:23:41;18.42;;;5.75;;
69087;SDS011;56190;43.562;5.036;2023-06-22T13:26:07;16.15;;;6.28;;
69087;SDS011;56190;43.562;5.036;2023-06-22T13:28:32;17.55;;;7.35;;
69087;SDS011;56190;43.562;5.036;2023-06-22T13:30:57;16.10;;;5.70;;
69087;SDS011;56190;43.562;5.036;2023-06-22T13:33:22;20.75;;;5.88;;
69087;SDS011;56190;43.562;5.036;2023-06-22T13:35:48;16.77;;;6.70;;
69087;SDS011;56190;43.562;5.036;2023-06-22T13:38:13;16.33;;;5.28;;
69087;SDS011;56190;43.562;5.036;2023-06-22T13:40:38;13.80;;;5.72;;
69087;SDS011;56190;43.562;5.036;2023-06-22T13:43:04;13.07;;;5.07;;
69087;SDS011;56190;43.562;5.036;2023-06-22T13:45:29;14.40;;;5.13;;
69087;SDS011;56190;43.562;5.036;2023-06-22T13:47:55;14.20;;;5.55;;
69087;SDS011;56190;43.562;5.036;2023-06-22T13:50:20;12.85;;;5.45;;
69087;SDS011;56190;43.562;5.036;2023-06-22T13:52:45;16.95;;;5.95;;
69087;SDS011;56190;43.562;5.036;2023-06-22T13:55:10;15.47;;;5.67;;
69087;SDS011;56190;43.562;5.036;2023-06-22T13:57:36;12.87;;;5.50;;
69087;SDS011;56190;43.562;5.036;2023-06-22T14:00:02;16.67;;;5.65;;
69087;SDS011;56190;43.562;5.036;2023-06-22T14:02:29;17.33;;;5.95;;
69087;SDS011;56190;43.562;5.036;2023-06-22T14:04:55;14.18;;;5.57;;
69087;SDS011;56190;43.562;5.036;2023-06-22T14:07:20;17.02;;;6.28;;
69087;SDS011;56190;43.562;5.036;2023-06-22T14:09:46;16.10;;;5.72;;
69087;SDS011;56190;43.562;5.036;2023-06-22T14:12:11;16.25;;;5.20;;
69087;SDS011;56190;43.562;5.036;2023-06-22T14:14:36;14.27;;;5.43;;
69087;SDS011;56190;43.562;5.036;2023-06-22T14:17:02;11.60;;;5.38;;
69087;SDS011;56190;43.562;5.036;2023-06-22T14:19:28;13.25;;;5.50;;
69087;SDS011;56190;43.562;5.036;2023-06-22T14:21:53;16.95;;;6.95;;
69087;SDS011;56190;43.562;5.036;2023-06-22T14:24:18;13.57;;;5.65;;
69087;SDS011;56190;43.562;5.036;2023-06-22T14:26:43;15.98;;;6.32;;
69087;SDS011;56190;43.562;5.036;2023-06-22T14:29:09;17.97;;;6.17;;
69087;SDS011;56190;43.562;5.036;2023-06-22T14:31:34;19.17;;;6.28;;
69087;SDS011;56190;43.562;5.036;2023-06-22T14:33:59;17.45;;;6.20;;
69087;SDS011;56190;43.562;5.036;2023-06-22T14:36:25;18.10;;;6.18;;
69087;SDS011;56190;43.562;5.036;2023-06-22T14:38:50;14.73;;;5.95;;
69087;SDS011;56190;43.562;5.036;2023-06-22T14:41:16;17.50;;;5.85;;
69087;SDS011;56190;43.562;5.036;2023-06-22T14:43:45;14.27;;;5.18;;
69087;SDS011;56190;43.562;5.036;2023-06-22T14:46:11;13.02;;;5.40;;
69087;SDS011;56190;43.562;5.036;2023-06-22T14:48:37;17.80;;;6.28;;
69087;SDS011;56190;43.562;5.036;2023-06-22T14:51:02;24.83;;;7.00;;
69087;SDS011;56190;43.562;5.036;2023-06-22T14:53:27;18.50;;;6.45;;
69087;SDS011;56190;43.562;5.036;2023-06-22T14:55:52;14.63;;;6.43;;
69087;SDS011;56190;43.562;5.036;2023-06-22T14:58:19;15.40;;;5.65;;
69087;SDS011;56190;43.562;5.036;2023-06-22T15:00:45;18.27;;;6.53;;
69087;SDS011;56190;43.562;5.036;2023-06-22T15:03:10;18.73;;;6.00;;
69087;SDS011;56190;43.562;5.036;2023-06-22T15:08:07;20.30;;;6.13;;
69087;SDS011;56190;43.562;5.036;2023-06-22T15:10:32;16.77;;;6.40;;
69087;SDS011;56190;43.562;5.036;2023-06-22T15:12:57;17.07;;;6.33;;
69087;SDS011;56190;43.562;5.036;2023-06-22T15:15:22;17.45;;;6.03;;